Time;durP1;ratioP1;P1;durP2;ratioP2;P2;SDS_P1;SDS_P2;PMS_P1;PMS_P2;Temp;Humidity;BMP_temperature;BMP_pressure;BME280_temperature;BME280_humidity;BME280_pressure;Samples;Min_cycle;Max_cycle;Signal;HPM_P1;HPM_P2
2022/05/17 00:00:08;;;;;;;0.10;0.10;;;15.20;99.90;;;;;;5032254;28;20861;-88
2022/05/17 00:02:40;;;;;;;0.10;0.10;;;15.20;99.90;;;;;;5068723;22;20239;-89
2022/05/17 00:05:07;;;;;;;0.10;0.10;;;15.20;99.90;;;;;;5029998;28;20442;-88
2022/05/17 00:07:32;;;;;;;0.10;0.10;;;15.40;99.90;;;;;;5036474;28;20798;-88
2022/05/17 00:09:58;;;;;;;0.10;0.10;;;15.30;99.90;;;;;;5052724;28;20441;-89
2022/05/17 00:12:24;;;;;;;0.10;0.10;;;15.30;99.90;;;;;;5036981;28;20191;-87
2022/05/17 00:14:49;;;;;;;0.10;0.10;;;15.30;99.90;;;;;;5032299;28;20191;-88
2022/05/17 00:17:24;;;;;;;0.10;0.10;;;15.20;99.90;;;;;;5037240;28;20186;-88
2022/05/17 00:19:50;;;;;;;0.10;0.10;;;15.20;99.90;;;;;;5056456;23;20210;-87
2022/05/17 00:22:15;;;;;;;0.10;0.10;;;15.10;99.90;;;;;;4995607;28;20548;-87
2022/05/17 00:24:41;;;;;;;0.10;0.10;;;15.00;99.90;;;;;;5026882;28;20195;-88
2022/05/17 00:27:07;;;;;;;0.10;0.10;;;14.80;99.90;;;;;;5009057;23;20242;-87
2022/05/17 00:29:53;;;;;;;0.10;0.10;;;14.80;99.90;;;;;;5012495;28;20676;-86
2022/05/17 00:32:19;;;;;;;0.10;0.10;;;14.80;99.90;;;;;;5008446;28;20446;-87
2022/05/17 00:34:46;;;;;;;0.10;0.10;;;14.70;99.90;;;;;;4994491;28;20451;-86
2022/05/17 00:37:13;;;;;;;0.10;0.10;;;14.60;99.90;;;;;;5017274;23;20545;-87
2022/05/17 00:39:39;;;;;;;0.10;0.10;;;14.60;99.90;;;;;;5019750;23;21068;-88
2022/05/17 00:42:14;;;;;;;0.10;0.10;;;14.60;99.90;;;;;;5022974;28;20446;-88
2022/05/17 00:44:42;;;;;;;0.10;0.10;;;14.50;99.90;;;;;;5006867;28;20470;-87
2022/05/17 00:47:12;;;;;;;0.10;0.10;;;14.40;99.90;;;;;;5039632;22;20476;-87
2022/05/17 00:49:42;;;;;;;0.10;0.10;;;14.40;99.90;;;;;;5049077;28;21001;-88
2022/05/17 00:52:30;;;;;;;0.10;0.10;;;14.40;99.90;;;;;;5047851;28;20457;-88
2022/05/17 00:55:01;;;;;;;0.10;0.10;;;14.50;99.90;;;;;;5037782;22;20482;-88
2022/05/17 00:57:42;;;;;;;0.10;0.10;;;14.40;99.90;;;;;;5038226;23;20507;-87
2022/05/17 01:00:30;;;;;;;0.10;0.10;;;14.30;99.90;;;;;;5052912;28;20529;-86
2022/05/17 01:03:00;;;;;;;0.10;0.10;;;14.10;99.90;;;;;;5046029;28;21242;-88
2022/05/17 01:05:26;;;;;;;0.30;0.30;;;14.10;99.90;;;;;;5074031;22;20608;-87
2022/05/17 01:07:56;;;;;;;0.40;0.40;;;14.20;99.90;;;;;;5042672;28;20531;-86
2022/05/17 01:10:40;;;;;;;0.20;0.20;;;14.20;99.90;;;;;;5050773;28;20472;-86
2022/05/17 01:16:24;;;;;;;0.40;0.40;;;14.00;99.90;;;;;;5050572;28;20528;-87
2022/05/17 01:18:43;;;;;;;0.30;0.30;;;14.00;99.90;;;;;;5047386;28;20449;-86
2022/05/17 01:21:11;;;;;;;0.30;0.30;;;14.00;99.90;;;;;;5047357;28;20476;-86
2022/05/17 01:23:36;;;;;;;0.20;0.20;;;14.00;99.90;;;;;;5081754;23;20909;-86
2022/05/17 01:26:15;;;;;;;0.10;0.10;;;13.90;99.90;;;;;;5073890;28;20472;-86
2022/05/17 01:28:40;;;;;;;0.20;0.20;;;13.90;99.90;;;;;;5096933;28;20193;-85
2022/05/17 01:31:06;;;;;;;0.10;0.10;;;13.70;99.90;;;;;;5124408;22;20551;-86
2022/05/17 01:33:35;;;;;;;0.10;0.10;;;13.80;99.90;;;;;;5024132;28;20203;-85
2022/05/17 01:36:02;;;;;;;0.10;0.10;;;13.70;99.90;;;;;;5014873;28;20191;-86
2022/05/17 01:38:28;;;;;;;0.10;0.10;;;13.70;99.90;;;;;;5008120;28;20449;-88
2022/05/17 01:41:00;;;;;;;0.10;0.10;;;13.70;99.90;;;;;;5018782;28;20594;-87
2022/05/17 01:43:26;;;;;;;0.10;0.10;;;13.70;99.90;;;;;;5013465;28;20443;-87
2022/05/17 01:45:52;;;;;;;0.10;0.10;;;13.60;99.90;;;;;;5015563;28;20489;-87
2022/05/17 01:48:18;;;;;;;0.10;0.10;;;13.60;99.90;;;;;;5021862;22;20846;-85
2022/05/17 01:50:43;;;;;;;0.10;0.10;;;13.40;99.90;;;;;;5007174;28;20187;-88
2022/05/17 01:53:39;;;;;;;0.10;0.10;;;13.50;99.90;;;;;;5030695;28;20603;-87
2022/05/17 01:56:07;;;;;;;0.10;0.10;;;13.40;99.90;;;;;;5014492;28;20188;-87
2022/05/17 01:58:33;;;;;;;0.10;0.10;;;13.40;99.90;;;;;;5024408;23;20501;-87
2022/05/17 02:00:58;;;;;;;0.10;0.10;;;13.40;99.90;;;;;;5012184;28;20481;-87
2022/05/17 02:03:29;;;;;;;0.10;0.10;;;13.30;99.90;;;;;;5027514;28;20447;-86
2022/05/17 02:08:20;;;;;;;0.10;0.10;;;13.30;99.90;;;;;;5074726;23;20522;-85
2022/05/17 02:10:46;;;;;;;0.10;0.10;;;13.30;99.90;;;;;;5074903;28;20187;-85
2022/05/17 02:13:12;;;;;;;0.10;0.10;;;13.20;99.90;;;;;;5059643;28;20198;-85
2022/05/17 02:15:38;;;;;;;0.10;0.10;;;13.20;99.90;;;;;;5045032;23;20248;-85
2022/05/17 02:18:13;;;;;;;0.30;0.30;;;13.10;99.90;;;;;;5031820;28;20250;-86
2022/05/17 02:20:38;;;;;;;0.20;0.20;;;13.20;99.90;;;;;;5023010;28;20847;-85
2022/05/17 02:23:07;;;;;;;0.40;0.40;;;13.00;99.90;;;;;;5037520;28;20524;-86
2022/05/17 02:25:33;;;;;;;0.30;0.30;;;13.00;99.90;;;;;;5043043;22;20235;-85
2022/05/17 02:27:59;;;;;;;0.20;0.20;;;13.00;99.90;;;;;;5032453;28;20450;-85
2022/05/17 02:30:24;;;;;;;0.20;0.20;;;13.00;99.90;;;;;;5051340;28;20464;-85
2022/05/17 02:35:21;;;;;;;0.47;0.47;;;13.00;99.90;;;;;;5079714;23;20228;-86
2022/05/17 02:37:47;;;;;;;0.40;0.40;;;13.00;99.90;;;;;;5086091;28;20455;-86
2022/05/17 02:40:13;;;;;;;0.20;0.20;;;13.00;99.90;;;;;;5089925;28;20205;-84
2022/05/17 02:42:38;;;;;;;0.10;0.10;;;12.90;99.90;;;;;;5075124;22;20591;-86
2022/05/17 02:45:06;;;;;;;0.10;0.10;;;12.90;99.90;;;;;;5034650;28;20655;-85
2022/05/17 02:47:39;;;;;;;0.10;0.10;;;12.90;99.90;;;;;;5051760;28;20206;-86
2022/05/17 02:50:05;;;;;;;0.10;0.10;;;12.90;99.90;;;;;;5032362;23;20453;-86
2022/05/17 02:52:31;;;;;;;0.10;0.10;;;12.90;99.90;;;;;;5011623;28;20471;-86
2022/05/17 02:54:56;;;;;;;0.10;0.10;;;12.80;99.90;;;;;;5022369;28;20798;-86
2022/05/17 02:57:21;;;;;;;0.10;0.10;;;12.80;99.90;;;;;;5028330;28;20192;-86
2022/05/17 03:02:22;;;;;;;0.10;0.10;;;12.80;99.90;;;;;;5077255;22;20325;-86
2022/05/17 03:04:47;;;;;;;0.10;0.10;;;12.80;99.90;;;;;;4987070;28;20185;-85
2022/05/17 03:07:13;;;;;;;0.10;0.10;;;12.80;99.90;;;;;;4978786;28;20451;-86
2022/05/17 03:09:38;;;;;;;0.10;0.10;;;12.80;99.90;;;;;;5080633;23;20229;-86
2022/05/17 03:12:05;;;;;;;0.10;0.10;;;12.80;99.90;;;;;;5053230;28;20174;-86
2022/05/17 03:14:51;;;;;;;0.10;0.10;;;12.70;99.90;;;;;;5055161;28;20193;-87
2022/05/17 03:17:17;;;;;;;0.10;0.10;;;12.90;99.90;;;;;;5076195;22;20487;-87
2022/05/17 03:19:44;;;;;;;0.10;0.10;;;13.00;99.90;;;;;;4986487;28;20460;-86
2022/05/17 03:22:10;;;;;;;0.10;0.10;;;13.00;99.90;;;;;;4993796;28;20789;-87
2022/05/17 03:24:39;;;;;;;0.10;0.10;;;13.00;99.90;;;;;;4983040;28;20538;-86
2022/05/17 03:27:05;;;;;;;0.10;0.10;;;13.00;99.90;;;;;;4993162;28;20463;-88
2022/05/17 03:29:31;;;;;;;0.10;0.10;;;12.80;99.90;;;;;;4994764;28;20459;-87
2022/05/17 03:31:57;;;;;;;0.10;0.10;;;12.80;99.90;;;;;;4996109;28;20507;-86
2022/05/17 03:34:23;;;;;;;0.10;0.10;;;13.00;99.90;;;;;;5010086;23;21519;-86
2022/05/17 03:36:48;;;;;;;0.10;0.10;;;13.00;99.90;;;;;;5060448;23;20233;-88
2022/05/17 03:39:14;;;;;;;0.10;0.10;;;13.00;99.90;;;;;;5045536;28;20462;-87
2022/05/17 03:41:40;;;;;;;0.10;0.10;;;12.90;99.90;;;;;;5044113;28;20225;-87
2022/05/17 03:46:30;;;;;;;0.10;0.10;;;13.00;99.90;;;;;;5054628;23;20246;-87
2022/05/17 03:48:56;;;;;;;0.10;0.10;;;13.00;99.90;;;;;;5027920;28;20730;-87
2022/05/17 03:51:22;;;;;;;0.10;0.10;;;12.90;99.90;;;;;;5046350;28;20194;-86
2022/05/17 03:53:50;;;;;;;0.10;0.10;;;12.90;99.90;;;;;;5080409;22;20227;-86
2022/05/17 03:56:27;;;;;;;0.10;0.10;;;12.80;99.90;;;;;;5052029;28;20437;-86
2022/05/17 03:58:53;;;;;;;0.10;0.10;;;12.80;99.90;;;;;;5034184;28;20433;-86
2022/05/17 04:01:18;;;;;;;0.10;0.10;;;12.80;99.90;;;;;;5051604;28;20491;-86
2022/05/17 04:03:44;;;;;;;0.10;0.10;;;12.80;99.90;;;;;;5061613;23;20295;-87
2022/05/17 04:06:10;;;;;;;0.10;0.10;;;12.80;99.90;;;;;;5074246;28;20198;-87
2022/05/17 04:08:36;;;;;;;0.10;0.10;;;12.80;99.90;;;;;;5068884;28;20762;-86
2022/05/17 04:13:40;;;;;;;0.10;0.10;;;12.90;99.90;;;;;;5065355;23;20495;-85
2022/05/17 04:16:05;;;;;;;0.20;0.20;;;13.00;99.90;;;;;;5044741;28;20819;-84
2022/05/17 04:18:31;;;;;;;0.10;0.10;;;13.10;99.90;;;;;;5032301;28;20189;-85
2022/05/17 04:20:58;;;;;;;0.10;0.10;;;12.90;99.90;;;;;;5056673;23;20269;-85
2022/05/17 04:23:33;;;;;;;0.10;0.10;;;13.00;99.90;;;;;;5045112;28;20185;-85
2022/05/17 04:25:58;;;;;;;0.10;0.10;;;13.00;99.90;;;;;;5050382;28;20803;-86
2022/05/17 04:28:24;;;;;;;0.10;0.10;;;13.10;99.90;;;;;;5063285;23;20425;-85
2022/05/17 04:30:50;;;;;;;0.10;0.10;;;13.10;99.90;;;;;;5049921;28;20277;-86
2022/05/17 04:33:16;;;;;;;0.10;0.10;;;13.10;99.90;;;;;;5051041;28;20617;-85
2022/05/17 04:35:42;;;;;;;0.20;0.20;;;13.10;99.90;;;;;;5040578;28;20195;-86
2022/05/17 04:38:08;;;;;;;0.17;0.17;;;13.00;99.90;;;;;;5050570;23;20497;-85
2022/05/17 04:40:35;;;;;;;0.23;0.23;;;13.00;99.90;;;;;;5051594;28;20461;-86
2022/05/17 04:43:00;;;;;;;0.20;0.20;;;13.00;99.90;;;;;;5051359;28;20440;-86
2022/05/17 04:45:26;;;;;;;0.10;0.10;;;13.10;99.90;;;;;;5051524;28;20976;-86
2022/05/17 04:47:51;;;;;;;0.10;0.10;;;13.00;99.90;;;;;;5050919;28;20183;-87
2022/05/17 04:50:19;;;;;;;0.10;0.10;;;13.10;99.90;;;;;;5033791;28;20197;-86
2022/05/17 04:53:03;;;;;;;0.70;0.70;;;13.10;99.90;;;;;;5032694;28;20207;-86
2022/05/17 04:55:29;;;;;;;0.57;0.57;;;13.20;99.90;;;;;;5051561;28;20433;-86
2022/05/17 04:57:54;;;;;;;0.30;0.30;;;13.10;99.90;;;;;;5049336;28;20448;-86
2022/05/17 05:00:22;;;;;;;0.10;0.10;;;13.10;99.90;;;;;;5033130;28;20206;-86
2022/05/17 05:02:48;;;;;;;0.10;0.10;;;13.20;99.90;;;;;;5054382;28;20187;-87
2022/05/17 05:05:22;;;;;;;0.10;0.10;;;13.10;99.90;;;;;;5096044;23;20500;-86
2022/05/17 05:07:47;;;;;;;0.10;0.10;;;13.10;99.90;;;;;;5047526;28;20457;-85
2022/05/17 05:10:14;;;;;;;0.10;0.10;;;13.10;99.90;;;;;;5056633;28;20445;-86
2022/05/17 05:12:40;;;;;;;0.10;0.10;;;13.00;99.90;;;;;;5051292;23;20235;-86
2022/05/17 05:15:07;;;;;;;0.20;0.20;;;12.90;99.90;;;;;;5030137;28;21035;-86
2022/05/17 05:17:42;;;;;;;0.10;0.10;;;13.00;99.90;;;;;;5019016;28;20953;-88
2022/05/17 05:20:13;;;;;;;0.10;0.10;;;13.10;99.90;;;;;;5037321;28;20890;-87
2022/05/17 05:22:39;;;;;;;0.10;0.10;;;13.00;99.90;;;;;;5066974;23;20496;-86
2022/05/17 05:25:05;;;;;;;0.10;0.10;;;13.20;99.90;;;;;;5082526;28;20446;-87
2022/05/17 05:27:32;;;;;;;0.20;0.20;;;13.30;99.90;;;;;;5094824;28;20462;-85
2022/05/17 05:29:58;;;;;;;0.10;0.10;;;13.30;99.90;;;;;;5085775;22;20494;-85
2022/05/17 05:32:24;;;;;;;0.10;0.10;;;13.40;99.90;;;;;;5009704;23;21464;-86
2022/05/17 05:34:50;;;;;;;0.10;0.10;;;13.30;99.90;;;;;;5010760;28;20458;-88
2022/05/17 05:37:16;;;;;;;0.20;0.20;;;13.40;99.90;;;;;;4997280;28;20196;-87
2022/05/17 05:39:41;;;;;;;0.10;0.10;;;13.40;99.90;;;;;;5018071;28;20219;-87
2022/05/17 05:42:07;;;;;;;0.10;0.10;;;13.50;99.90;;;;;;5017678;28;20199;-88
2022/05/17 05:44:34;;;;;;;0.20;0.20;;;13.60;99.90;;;;;;5015307;28;20203;-87
2022/05/17 05:47:04;;;;;;;0.10;0.10;;;13.60;99.90;;;;;;5016256;28;20180;-87
2022/05/17 05:49:30;;;;;;;0.17;0.17;;;13.80;99.90;;;;;;5013950;28;20971;-87
2022/05/17 05:51:57;;;;;;;0.20;0.20;;;13.90;99.90;;;;;;5020428;28;20447;-88
2022/05/17 05:54:22;;;;;;;0.10;0.10;;;13.90;99.90;;;;;;5014453;28;20197;-87
2022/05/17 05:56:48;;;;;;;0.20;0.20;;;14.10;99.90;;;;;;5024001;23;20555;-87
2022/05/17 05:59:14;;;;;;;0.10;0.10;;;14.00;99.90;;;;;;5035052;28;20191;-88
2022/05/17 06:01:39;;;;;;;0.20;0.20;;;14.10;99.90;;;;;;5032430;28;20230;-89
2022/05/17 06:04:05;;;;;;;0.20;0.20;;;14.20;99.90;;;;;;5035690;28;20198;-87
2022/05/17 06:06:31;;;;;;;0.10;0.10;;;14.30;99.90;;;;;;5104280;23;20249;-88
2022/05/17 06:08:57;;;;;;;0.10;0.10;;;14.30;99.90;;;;;;5057170;28;20801;-89
2022/05/17 06:11:23;;;;;;;0.20;0.20;;;14.20;99.90;;;;;;5054453;28;20187;-89
2022/05/17 06:13:49;;;;;;;0.10;0.10;;;14.50;99.90;;;;;;5054444;22;20239;-88
2022/05/17 06:16:15;;;;;;;0.10;0.10;;;14.50;99.90;;;;;;5020322;28;20540;-89
2022/05/17 06:18:50;;;;;;;0.10;0.10;;;14.60;99.90;;;;;;5038481;28;20492;-89
2022/05/17 06:21:16;;;;;;;0.10;0.10;;;14.80;99.90;;;;;;5013030;28;20481;-88
2022/05/17 06:23:41;;;;;;;0.10;0.10;;;14.70;99.90;;;;;;5050260;22;20489;-89
2022/05/17 06:26:07;;;;;;;0.40;0.40;;;14.80;99.90;;;;;;5060026;23;20272;-89
2022/05/17 06:28:32;;;;;;;0.10;0.10;;;15.00;99.90;;;;;;5060063;28;20604;-88
2022/05/17 06:30:58;;;;;;;0.10;0.10;;;14.90;99.90;;;;;;5073278;28;20214;-92
2022/05/17 06:35:58;;;;;;;0.10;0.10;;;15.10;99.90;;;;;;5094741;23;20239;-92
2022/05/17 06:38:24;;;;;;;0.10;0.10;;;15.30;99.90;;;;;;5066912;28;20452;-93
2022/05/17 06:40:50;;;;;;;0.20;0.20;;;15.30;99.90;;;;;;5073692;28;20201;-93
2022/05/17 06:43:15;;;;;;;0.10;0.10;;;15.30;99.90;;;;;;5085451;28;20198;-91
2022/05/17 06:45:41;;;;;;;0.60;0.60;;;15.40;99.90;;;;;;5088007;28;20190;-92
2022/05/17 06:48:33;;;;;;;0.60;0.60;;;15.30;99.90;;;;;;5087149;28;20194;-89
2022/05/17 06:51:07;;;;;;;0.50;0.50;;;15.40;99.90;;;;;;5046629;23;20230;-89
2022/05/17 06:53:33;;;;;;;0.20;0.20;;;15.30;99.90;;;;;;5029016;28;20456;-88
2022/05/17 06:56:11;;;;;;;0.30;0.30;;;15.30;99.90;;;;;;5052808;28;20445;-88
2022/05/17 06:58:37;;;;;;;0.20;0.20;;;15.40;99.90;;;;;;5026726;23;20486;-88
2022/05/17 07:01:02;;;;;;;0.10;0.10;;;15.50;99.90;;;;;;5007702;28;20491;-87
2022/05/17 07:03:28;;;;;;;0.10;0.10;;;15.50;99.90;;;;;;5014682;28;20223;-88
2022/05/17 07:05:53;;;;;;;0.40;0.40;;;15.40;99.90;;;;;;5004564;23;20239;-87
2022/05/17 07:08:39;;;;;;;0.10;0.10;;;15.50;99.90;;;;;;5064299;22;20246;-88
2022/05/17 07:13:49;;;;;;;0.20;0.20;;;15.50;99.90;;;;;;5044017;28;20448;-87
2022/05/17 07:18:47;;;;;;;0.20;0.20;;;15.30;99.90;;;;;;5131466;23;20239;-89
2022/05/17 07:21:13;;;;;;;0.20;0.20;;;15.30;99.90;;;;;;5043083;28;20476;-87
2022/05/17 07:23:38;;;;;;;0.10;0.10;;;15.20;99.90;;;;;;5119332;23;20435;-89
2022/05/17 07:26:04;;;;;;;0.20;0.20;;;15.10;99.90;;;;;;5045103;23;20238;-90
2022/05/17 07:28:30;;;;;;;0.10;0.10;;;15.10;99.90;;;;;;5035135;28;20759;-90
2022/05/17 07:31:02;;;;;;;0.10;0.10;;;15.00;99.90;;;;;;5004277;28;20192;-90
2022/05/17 07:33:37;;;;;;;0.10;0.10;;;14.90;99.90;;;;;;5053633;22;20230;-89
2022/05/17 07:36:03;;;;;;;0.10;0.10;;;14.80;99.90;;;;;;4996632;28;20493;-90
2022/05/17 07:38:29;;;;;;;0.10;0.10;;;14.80;99.90;;;;;;5015326;28;20490;-90
2022/05/17 07:40:55;;;;;;;0.10;0.10;;;14.80;99.90;;;;;;5011349;28;20482;-90
2022/05/17 07:43:40;;;;;;;0.20;0.20;;;14.80;99.90;;;;;;5063967;23;21001;-90
2022/05/17 07:46:05;;;;;;;0.10;0.10;;;14.70;99.90;;;;;;5076464;28;20411;-90
2022/05/17 07:48:31;;;;;;;0.10;0.10;;;14.70;99.90;;;;;;5054419;28;20534;-90
2022/05/17 07:50:56;;;;;;;0.10;0.10;;;14.70;99.90;;;;;;5074708;28;20188;-90
2022/05/17 07:53:22;;;;;;;0.10;0.10;;;14.70;99.90;;;;;;5070842;28;20239;-88
2022/05/17 07:55:51;;;;;;;0.10;0.10;;;14.80;99.90;;;;;;5061419;28;20193;-90
2022/05/17 07:58:17;;;;;;;0.10;0.10;;;14.80;99.90;;;;;;5071280;28;21011;-90
2022/05/17 08:00:43;;;;;;;0.10;0.10;;;14.90;99.90;;;;;;5085379;22;20488;-89
2022/05/17 08:03:12;;;;;;;0.10;0.10;;;15.00;99.90;;;;;;5050581;28;20472;-89
2022/05/17 08:05:37;;;;;;;0.10;0.10;;;15.00;99.90;;;;;;5061302;28;20264;-89
2022/05/17 08:08:03;;;;;;;0.10;0.10;;;15.00;99.90;;;;;;5054354;28;20468;-90
2022/05/17 08:10:49;;;;;;;0.10;0.10;;;15.10;99.90;;;;;;5056673;23;20723;-90
2022/05/17 08:13:16;;;;;;;0.10;0.10;;;15.10;99.90;;;;;;5034312;28;20433;-90
2022/05/17 08:15:42;;;;;;;0.10;0.10;;;15.10;99.90;;;;;;5035847;28;20934;-90
2022/05/17 08:18:08;;;;;;;0.10;0.10;;;15.20;99.90;;;;;;5052374;28;20436;-89
2022/05/17 08:20:40;;;;;;;0.10;0.10;;;15.20;99.90;;;;;;5039369;23;20879;-89
2022/05/17 08:23:06;;;;;;;0.10;0.10;;;15.20;99.90;;;;;;5051690;28;20194;-91
2022/05/17 08:28:17;;;;;;;0.10;0.10;;;15.20;99.90;;;;;;5050023;28;20595;-91
2022/05/17 08:30:43;;;;;;;0.10;0.10;;;15.20;99.90;;;;;;5031242;28;20445;-89
2022/05/17 08:33:17;;;;;;;0.10;0.10;;;15.30;99.90;;;;;;5022237;28;20980;-90
2022/05/17 08:35:56;;;;;;;0.10;0.10;;;15.30;99.90;;;;;;5049512;28;20441;-88
2022/05/17 08:38:24;;;;;;;0.10;0.10;;;15.40;99.90;;;;;;5054680;28;21014;-88
2022/05/17 08:40:53;;;;;;;0.10;0.10;;;15.50;99.90;;;;;;5026606;28;20476;-88
2022/05/17 08:46:10;;;;;;;0.10;0.10;;;15.40;99.90;;;;;;5074575;23;20502;-89
2022/05/17 08:49:03;;;;;;;0.10;0.10;;;15.50;99.90;;;;;;5067978;28;20526;-88
2022/05/17 08:51:43;;;;;;;0.10;0.10;;;15.60;99.90;;;;;;5066174;28;20447;-90
2022/05/17 08:54:14;;;;;;;0.10;0.10;;;15.70;99.90;;;;;;5037874;23;20525;-89
2022/05/17 08:57:02;;;;;;;0.10;0.10;;;15.70;99.90;;;;;;5013164;28;20465;-89
2022/05/17 09:02:01;;;;;;;0.10;0.10;;;15.50;99.90;;;;;;5150245;23;20500;-88
2022/05/17 09:04:48;;;;;;;0.10;0.10;;;15.50;99.90;;;;;;5064376;28;20214;-86
2022/05/17 09:07:24;;;;;;;0.10;0.10;;;15.40;99.90;;;;;;5064686;28;20440;-86
2022/05/17 09:10:02;;;;;;;0.20;0.20;;;15.50;99.90;;;;;;5064610;28;20442;-86
2022/05/17 09:12:43;;;;;;;0.10;0.10;;;15.60;99.90;;;;;;5068249;23;20596;-89
2022/05/17 09:15:12;;;;;;;0.10;0.10;;;15.80;99.90;;;;;;5060012;28;20476;-87
2022/05/17 09:17:38;;;;;;;0.10;0.10;;;15.80;99.90;;;;;;5066268;28;20432;-85
2022/05/17 09:20:05;;;;;;;0.13;0.13;;;15.80;99.90;;;;;;5069636;23;21004;-87
2022/05/17 09:22:31;;;;;;;0.10;0.10;;;15.90;99.90;;;;;;5023375;22;20775;-86
2022/05/17 09:25:15;;;;;;;0.10;0.10;;;16.00;99.90;;;;;;5008284;28;20451;-88
2022/05/17 09:27:40;;;;;;;0.10;0.10;;;16.10;99.90;;;;;;5001016;28;20200;-88
2022/05/17 09:30:21;;;;;;;0.10;0.10;;;16.10;99.90;;;;;;5011698;22;22123;-89
2022/05/17 09:32:47;;;;;;;0.10;0.10;;;16.20;99.90;;;;;;5030525;28;20198;-89
2022/05/17 09:35:22;;;;;;;0.10;0.10;;;16.40;99.90;;;;;;5047055;28;20479;-89
2022/05/17 09:37:58;;;;;;;0.10;0.10;;;16.40;99.90;;;;;;5052703;23;20460;-88
2022/05/17 09:40:28;;;;;;;0.10;0.10;;;16.50;99.90;;;;;;5009816;28;20470;-87
2022/05/17 09:43:13;;;;;;;0.10;0.10;;;16.60;99.90;;;;;;5024580;28;20489;-88
2022/05/17 09:45:55;;;;;;;0.10;0.10;;;16.50;99.90;;;;;;5030677;28;20484;-90
2022/05/17 09:48:30;;;;;;;0.10;0.10;;;16.60;99.90;;;;;;5045563;23;20577;-87
2022/05/17 09:53:49;;;;;;;0.10;0.10;;;16.40;99.90;;;;;;5067768;28;20439;-88
2022/05/17 09:56:16;;;;;;;0.10;0.10;;;16.30;99.90;;;;;;5072707;23;20487;-88
2022/05/17 09:58:44;;;;;;;0.10;0.10;;;16.30;99.90;;;;;;5080612;28;21178;-86
2022/05/17 10:01:17;;;;;;;0.10;0.10;;;16.20;99.90;;;;;;5084826;28;20474;-88
2022/05/17 10:04:00;;;;;;;0.10;0.10;;;16.20;99.90;;;;;;5089827;28;20447;-87
2022/05/17 10:06:35;;;;;;;0.10;0.10;;;16.20;99.90;;;;;;5093871;22;21065;-87
2022/05/17 10:09:39;;;;;;;0.10;0.10;;;16.10;99.90;;;;;;5084522;28;20479;-89
2022/05/17 10:12:09;;;;;;;0.10;0.10;;;16.00;99.90;;;;;;4979110;28;21513;-87
2022/05/17 10:14:44;;;;;;;0.10;0.10;;;16.00;99.90;;;;;;4985855;28;20491;-87
2022/05/17 10:17:28;;;;;;;0.10;0.10;;;16.00;99.90;;;;;;5020908;28;20453;-88
2022/05/17 10:19:58;;;;;;;0.10;0.10;;;16.00;99.90;;;;;;5090862;22;20439;-86
2022/05/17 10:22:50;;;;;;;0.10;0.10;;;16.00;99.90;;;;;;5070922;22;20563;-87
2022/05/17 10:25:44;;;;;;;0.10;0.10;;;15.90;99.90;;;;;;5067445;28;20452;-87
2022/05/17 10:28:31;;;;;;;0.10;0.10;;;15.90;99.90;;;;;;5087033;28;20827;-86
2022/05/17 10:31:03;;;;;;;0.10;0.10;;;15.90;99.90;;;;;;5077846;23;20447;-90
2022/05/17 10:33:35;;;;;;;0.10;0.10;;;15.80;99.90;;;;;;5046832;28;20740;-88
2022/05/17 10:36:28;;;;;;;0.10;0.10;;;15.80;99.90;;;;;;5047724;28;20483;-88
2022/05/17 10:39:11;;;;;;;0.10;0.10;;;15.80;99.90;;;;;;5047680;28;20484;-88
2022/05/17 10:41:37;;;;;;;0.10;0.10;;;15.90;99.90;;;;;;5065164;22;20611;-87
2022/05/17 10:44:22;;;;;;;0.10;0.10;;;15.80;99.90;;;;;;5065233;28;20520;-87
2022/05/17 10:46:55;;;;;;;0.10;0.10;;;15.90;99.90;;;;;;5070493;28;20451;-87
2022/05/17 10:49:33;;;;;;;0.10;0.10;;;15.90;99.90;;;;;;5078824;23;20494;-88
2022/05/17 10:52:38;;;;;;;0.10;0.10;;;15.90;99.90;;;;;;5009276;28;20446;-88
2022/05/17 10:55:20;;;;;;;0.10;0.10;;;16.00;99.90;;;;;;4989407;28;20538;-88
2022/05/17 11:00:18;;;;;;;0.10;0.10;;;16.00;99.90;;;;;;5077093;22;20955;-86
2022/05/17 11:03:06;;;;;;;0.10;0.10;;;16.00;99.90;;;;;;5086819;28;20707;-85
2022/05/17 11:05:57;;;;;;;0.10;0.10;;;16.10;99.90;;;;;;5083317;28;20797;-88
2022/05/17 11:08:52;;;;;;;0.10;0.10;;;16.20;99.90;;;;;;5075319;28;20459;-86
2022/05/17 11:11:55;;;;;;;0.10;0.10;;;16.20;99.90;;;;;;5070686;28;20454;-86
2022/05/17 11:14:30;;;;;;;0.10;0.10;;;16.30;99.90;;;;;;5083595;28;20458;-86
2022/05/17 11:17:24;;;;;;;0.10;0.10;;;16.30;99.90;;;;;;5031637;23;20862;-86
2022/05/17 11:20:04;;;;;;;0.10;0.10;;;16.30;99.90;;;;;;5006700;28;20465;-88
2022/05/17 11:26:15;;;;;;;0.10;0.10;;;16.40;99.90;;;;;;5034577;23;20496;-86
2022/05/17 11:28:53;;;;;;;0.10;0.10;;;16.40;99.90;;;;;;4979219;28;21078;-84
2022/05/17 11:34:23;;;;;;;0.10;0.10;;;16.40;99.90;;;;;;5052640;23;20489;-88
2022/05/17 11:36:51;;;;;;;0.10;0.10;;;16.40;99.90;;;;;;5047783;28;20437;-86
2022/05/17 11:39:41;;;;;;;0.10;0.10;;;16.40;99.90;;;;;;5044677;28;20440;-85
2022/05/17 11:42:31;;;;;;;0.20;0.20;;;16.40;99.90;;;;;;5028170;23;20576;-87
2022/05/17 11:45:23;;;;;;;0.10;0.10;;;16.50;99.90;;;;;;5029852;28;20446;-91
2022/05/17 11:47:58;;;;;;;0.27;0.27;;;16.50;99.90;;;;;;5022590;28;20438;-88
2022/05/17 11:50:30;;;;;;;0.10;0.10;;;16.50;99.90;;;;;;5030594;22;20481;-89
2022/05/17 11:53:24;;;;;;;0.10;0.10;;;16.60;99.90;;;;;;5014125;23;21085;-92
2022/05/17 11:56:14;;;;;;;0.10;0.00;;;16.60;99.90;;;;;;5030557;28;20449;-89
2022/05/17 11:59:08;;;;;;;0.10;0.10;;;16.60;99.90;;;;;;5026063;28;20438;-89
2022/05/17 12:01:37;;;;;;;0.10;0.10;;;16.60;99.90;;;;;;5025281;28;20489;-87
2022/05/17 12:04:09;;;;;;;0.10;0.10;;;16.70;99.90;;;;;;4998719;28;20454;-88
2022/05/17 12:06:52;;;;;;;0.10;0.10;;;16.60;99.90;;;;;;5010856;28;20461;-90
2022/05/17 12:09:31;;;;;;;0.10;0.10;;;16.70;99.90;;;;;;5021281;23;20501;-87
2022/05/17 12:12:24;;;;;;;0.10;0.10;;;16.80;99.90;;;;;;5064007;28;20451;-87
2022/05/17 12:15:16;;;;;;;0.10;0.10;;;16.80;99.90;;;;;;5067689;28;20526;-89
2022/05/17 12:18:11;;;;;;;0.10;0.10;;;16.90;99.90;;;;;;5087471;22;20510;-88
2022/05/17 12:21:00;;;;;;;0.20;0.20;;;16.90;99.90;;;;;;5048641;28;20488;-89
2022/05/17 12:23:55;;;;;;;0.10;0.10;;;17.00;99.90;;;;;;5048145;28;20898;-90
2022/05/17 12:26:36;;;;;;;0.10;0.10;;;17.00;99.90;;;;;;5061659;28;20445;-90
2022/05/17 12:32:10;;;;;;;0.10;0.10;;;17.20;99.90;;;;;;5069402;28;20443;-88
2022/05/17 12:34:38;;;;;;;0.10;0.10;;;17.20;99.90;;;;;;5043033;28;20447;-91
2022/05/17 12:37:16;;;;;;;0.10;0.10;;;17.40;99.90;;;;;;5038119;28;20789;-90
2022/05/17 12:45:19;;;;;;;0.00;0.00;;;17.50;99.90;;;;;;5068619;23;20562;-89
2022/05/17 12:47:52;;;;;;;0.10;0.10;;;17.50;99.90;;;;;;5060779;28;20997;-89
2022/05/17 12:50:22;;;;;;;0.10;0.10;;;17.60;99.90;;;;;;5067743;28;20527;-91
2022/05/17 12:53:10;;;;;;;0.10;0.10;;;17.70;99.90;;;;;;5052048;28;20432;-92
2022/05/17 12:55:36;;;;;;;0.00;0.00;;;17.70;99.90;;;;;;5070565;23;20437;-88
2022/05/17 12:58:15;;;;;;;0.10;0.10;;;17.70;99.90;;;;;;5066395;28;20814;-90
2022/05/17 13:01:00;;;;;;;0.00;0.00;;;17.80;99.90;;;;;;5046827;28;20305;-90
2022/05/17 13:03:28;;;;;;;0.10;0.10;;;17.80;99.90;;;;;;5032697;23;20498;-90
2022/05/17 13:05:58;;;;;;;0.10;0.10;;;17.90;99.90;;;;;;5030137;28;20453;-89
2022/05/17 13:08:53;;;;;;;0.10;0.10;;;17.90;99.90;;;;;;5028940;28;20477;-89
2022/05/17 13:11:25;;;;;;;0.10;0.10;;;18.00;99.90;;;;;;5044949;22;20502;-90
2022/05/17 13:13:58;;;;;;;0.10;0.00;;;18.00;99.90;;;;;;5062263;28;20532;-88
2022/05/17 13:16:38;;;;;;;0.10;0.10;;;18.00;99.90;;;;;;5048243;28;20505;-89
2022/05/17 13:21:38;;;;;;;0.10;0.00;;;18.10;99.90;;;;;;5077200;23;20841;-88
2022/05/17 13:24:20;;;;;;;0.10;0.10;;;18.00;99.90;;;;;;5073010;28;20657;-89
2022/05/17 13:27:06;;;;;;;0.10;0.10;;;18.00;99.90;;;;;;5048876;28;20571;-90
2022/05/17 13:29:37;;;;;;;0.10;0.10;;;18.10;99.90;;;;;;5071239;23;20505;-89
2022/05/17 13:32:34;;;;;;;0.10;0.10;;;18.10;99.90;;;;;;5044275;23;20867;-89
2022/05/17 13:35:08;;;;;;;0.10;0.10;;;18.20;99.90;;;;;;5016182;28;20434;-90
2022/05/17 13:37:34;;;;;;;0.10;0.10;;;18.20;99.90;;;;;;5010658;23;20530;-89
2022/05/17 13:40:02;;;;;;;0.10;0.10;;;18.30;99.90;;;;;;4998574;28;20479;-89
2022/05/17 13:42:57;;;;;;;0.10;0.10;;;18.30;99.90;;;;;;4996143;28;20454;-89
2022/05/17 13:45:36;;;;;;;0.10;0.10;;;18.30;99.90;;;;;;4995933;28;20446;-88
2022/05/17 13:48:02;;;;;;;0.10;0.10;;;18.30;99.90;;;;;;5007699;28;20443;-87
2022/05/17 13:50:57;;;;;;;0.10;0.00;;;18.20;99.90;;;;;;4990187;28;20514;-89
2022/05/17 13:53:22;;;;;;;0.10;0.10;;;18.30;99.90;;;;;;5013859;28;20184;-88
2022/05/17 13:55:48;;;;;;;0.10;0.00;;;18.40;99.90;;;;;;5014922;23;20589;-88
2022/05/17 13:58:14;;;;;;;0.10;0.10;;;18.50;99.90;;;;;;5031392;28;20188;-88
2022/05/17 14:00:59;;;;;;;0.10;0.10;;;18.70;99.90;;;;;;5031525;28;20208;-88
2022/05/17 14:03:25;;;;;;;0.10;0.10;;;18.70;99.90;;;;;;5031931;28;20653;-88
2022/05/17 14:05:50;;;;;;;0.10;0.10;;;18.80;99.90;;;;;;5024690;28;20470;-89